sensor_id;sensor_type;location;lat;lon;timestamp;P1;durP1;ratioP1;P2;durP2;ratioP2
33954;SDS011;20233;50.804;7.126;2023-05-10T00:01:30;4.93;;;3.08;;
33954;SDS011;20233;50.804;7.126;2023-05-10T00:03:55;6.68;;;3.33;;
33954;SDS011;20233;50.804;7.126;2023-05-10T00:06:21;5.55;;;3.50;;
33954;SDS011;20233;50.804;7.126;2023-05-10T00:08:46;6.90;;;2.88;;
33954;SDS011;20233;50.804;7.126;2023-05-10T00:11:12;4.35;;;2.85;;
33954;SDS011;20233;50.804;7.126;2023-05-10T00:13:37;6.60;;;3.25;;
33954;SDS011;20233;50.804;7.126;2023-05-10T00:16:03;5.72;;;3.10;;
33954;SDS011;20233;50.804;7.126;2023-05-10T00:18:29;5.93;;;3.28;;
33954;SDS011;20233;50.804;7.126;2023-05-10T00:20:54;6.55;;;3.15;;
33954;SDS011;20233;50.804;7.126;2023-05-10T00:23:20;5.78;;;2.88;;
33954;SDS011;20233;50.804;7.126;2023-05-10T00:25:45;5.15;;;2.67;;
33954;SDS011;20233;50.804;7.126;2023-05-10T00:28:11;4.15;;;2.65;;
33954;SDS011;20233;50.804;7.126;2023-05-10T00:30:36;3.42;;;2.25;;
33954;SDS011;20233;50.804;7.126;2023-05-10T00:33:02;4.85;;;3.28;;
33954;SDS011;20233;50.804;7.126;2023-05-10T00:35:28;3.60;;;2.22;;
33954;SDS011;20233;50.804;7.126;2023-05-10T00:37:53;4.35;;;1.92;;
33954;SDS011;20233;50.804;7.126;2023-05-10T00:40:19;4.13;;;2.55;;
33954;SDS011;20233;50.804;7.126;2023-05-10T00:42:44;4.40;;;2.50;;
33954;SDS011;20233;50.804;7.126;2023-05-10T00:45:10;3.60;;;2.20;;
33954;SDS011;20233;50.804;7.126;2023-05-10T00:47:36;5.20;;;2.63;;
33954;SDS011;20233;50.804;7.126;2023-05-10T00:50:02;4.38;;;1.60;;
33954;SDS011;20233;50.804;7.126;2023-05-10T00:52:29;4.93;;;2.83;;
33954;SDS011;20233;50.804;7.126;2023-05-10T00:54:55;4.30;;;2.30;;
33954;SDS011;20233;50.804;7.126;2023-05-10T00:57:21;4.47;;;2.38;;
33954;SDS011;20233;50.804;7.126;2023-05-10T00:59:47;4.93;;;2.17;;
33954;SDS011;20233;50.804;7.126;2023-05-10T01:02:13;3.08;;;1.85;;
33954;SDS011;20233;50.804;7.126;2023-05-10T01:04:39;3.67;;;2.22;;
33954;SDS011;20233;50.804;7.126;2023-05-10T01:07:05;5.03;;;2.47;;
33954;SDS011;20233;50.804;7.126;2023-05-10T01:09:31;3.78;;;2.58;;
33954;SDS011;20233;50.804;7.126;2023-05-10T01:11:57;3.85;;;2.50;;
33954;SDS011;20233;50.804;7.126;2023-05-10T01:14:23;4.55;;;2.55;;
33954;SDS011;20233;50.804;7.126;2023-05-10T01:16:50;5.32;;;2.30;;
33954;SDS011;20233;50.804;7.126;2023-05-10T01:21:51;5.65;;;2.58;;
33954;SDS011;20233;50.804;7.126;2023-05-10T01:35:45;6.97;;;2.60;;
33954;SDS011;20233;50.804;7.126;2023-05-10T01:43:28;4.93;;;2.28;;
33954;SDS011;20233;50.804;7.126;2023-05-10T01:46:03;4.65;;;2.50;;
33954;SDS011;20233;50.804;7.126;2023-05-10T01:48:57;3.65;;;2.28;;
33954;SDS011;20233;50.804;7.126;2023-05-10T01:51:23;3.50;;;2.58;;
33954;SDS011;20233;50.804;7.126;2023-05-10T01:53:54;4.43;;;2.40;;
33954;SDS011;20233;50.804;7.126;2023-05-10T01:56:25;4.13;;;1.90;;
33954;SDS011;20233;50.804;7.126;2023-05-10T01:58:52;4.07;;;1.55;;
33954;SDS011;20233;50.804;7.126;2023-05-10T02:01:20;2.50;;;1.27;;
33954;SDS011;20233;50.804;7.126;2023-05-10T02:03:46;4.13;;;1.33;;
33954;SDS011;20233;50.804;7.126;2023-05-10T02:06:16;4.05;;;1.00;;
33954;SDS011;20233;50.804;7.126;2023-05-10T02:08:45;3.53;;;1.13;;
33954;SDS011;20233;50.804;7.126;2023-05-10T02:11:12;7.82;;;0.80;;
33954;SDS011;20233;50.804;7.126;2023-05-10T02:13:38;1.77;;;0.80;;
33954;SDS011;20233;50.804;7.126;2023-05-10T02:16:05;2.72;;;0.90;;
33954;SDS011;20233;50.804;7.126;2023-05-10T02:18:32;5.03;;;0.82;;
33954;SDS011;20233;50.804;7.126;2023-05-10T02:20:59;2.67;;;1.05;;
33954;SDS011;20233;50.804;7.126;2023-05-10T02:23:26;3.47;;;1.10;;
33954;SDS011;20233;50.804;7.126;2023-05-10T02:25:52;2.53;;;0.82;;
33954;SDS011;20233;50.804;7.126;2023-05-10T02:28:19;2.83;;;0.80;;
33954;SDS011;20233;50.804;7.126;2023-05-10T02:30:48;3.80;;;0.70;;
33954;SDS011;20233;50.804;7.126;2023-05-10T02:33:14;4.63;;;0.75;;
33954;SDS011;20233;50.804;7.126;2023-05-10T02:35:39;2.42;;;1.13;;
33954;SDS011;20233;50.804;7.126;2023-05-10T02:38:05;2.70;;;0.88;;
33954;SDS011;20233;50.804;7.126;2023-05-10T02:40:32;2.78;;;1.00;;
33954;SDS011;20233;50.804;7.126;2023-05-10T02:42:59;3.42;;;0.80;;
33954;SDS011;20233;50.804;7.126;2023-05-10T02:45:27;2.92;;;1.00;;
33954;SDS011;20233;50.804;7.126;2023-05-10T02:47:56;4.18;;;1.38;;
33954;SDS011;20233;50.804;7.126;2023-05-10T02:50:22;3.60;;;1.00;;
33954;SDS011;20233;50.804;7.126;2023-05-10T02:52:54;2.67;;;1.30;;
33954;SDS011;20233;50.804;7.126;2023-05-10T02:55:31;4.35;;;1.50;;
33954;SDS011;20233;50.804;7.126;2023-05-10T02:58:00;5.15;;;1.88;;
33954;SDS011;20233;50.804;7.126;2023-05-10T03:00:27;4.68;;;2.17;;
33954;SDS011;20233;50.804;7.126;2023-05-10T03:02:53;4.75;;;2.60;;
33954;SDS011;20233;50.804;7.126;2023-05-10T03:05:19;7.60;;;3.22;;
33954;SDS011;20233;50.804;7.126;2023-05-10T03:07:45;5.32;;;2.78;;
33954;SDS011;20233;50.804;7.126;2023-05-10T03:10:11;9.32;;;2.85;;
33954;SDS011;20233;50.804;7.126;2023-05-10T03:12:57;4.88;;;2.90;;
33954;SDS011;20233;50.804;7.126;2023-05-10T03:15:42;7.53;;;3.70;;
33954;SDS011;20233;50.804;7.126;2023-05-10T03:18:23;7.78;;;3.67;;
33954;SDS011;20233;50.804;7.126;2023-05-10T03:21:04;9.90;;;4.60;;
33954;SDS011;20233;50.804;7.126;2023-05-10T03:23:39;10.68;;;4.78;;
33954;SDS011;20233;50.804;7.126;2023-05-10T03:26:12;12.75;;;5.38;;
33954;SDS011;20233;50.804;7.126;2023-05-10T03:28:50;11.75;;;6.25;;
33954;SDS011;20233;50.804;7.126;2023-05-10T03:31:17;10.90;;;6.25;;
33954;SDS011;20233;50.804;7.126;2023-05-10T03:33:49;14.05;;;6.78;;
33954;SDS011;20233;50.804;7.126;2023-05-10T03:36:16;12.35;;;6.18;;
33954;SDS011;20233;50.804;7.126;2023-05-10T03:38:42;13.60;;;6.97;;
33954;SDS011;20233;50.804;7.126;2023-05-10T03:41:07;13.18;;;6.70;;
33954;SDS011;20233;50.804;7.126;2023-05-10T03:43:33;12.02;;;6.00;;
33954;SDS011;20233;50.804;7.126;2023-05-10T03:46:01;13.60;;;6.82;;
33954;SDS011;20233;50.804;7.126;2023-05-10T03:48:27;14.60;;;6.57;;
33954;SDS011;20233;50.804;7.126;2023-05-10T03:50:53;15.05;;;7.22;;
33954;SDS011;20233;50.804;7.126;2023-05-10T03:53:18;16.23;;;7.63;;
33954;SDS011;20233;50.804;7.126;2023-05-10T03:55:44;15.05;;;7.95;;
33954;SDS011;20233;50.804;7.126;2023-05-10T03:58:12;15.85;;;7.43;;
33954;SDS011;20233;50.804;7.126;2023-05-10T04:00:38;16.85;;;7.95;;
33954;SDS011;20233;50.804;7.126;2023-05-10T04:03:08;16.57;;;7.73;;
33954;SDS011;20233;50.804;7.126;2023-05-10T04:05:34;16.77;;;8.20;;
33954;SDS011;20233;50.804;7.126;2023-05-10T04:08:00;18.02;;;8.80;;
33954;SDS011;20233;50.804;7.126;2023-05-10T04:10:26;18.05;;;8.50;;
33954;SDS011;20233;50.804;7.126;2023-05-10T04:12:51;17.55;;;9.38;;
33954;SDS011;20233;50.804;7.126;2023-05-10T04:15:17;17.13;;;9.57;;
33954;SDS011;20233;50.804;7.126;2023-05-10T04:17:42;18.33;;;9.75;;
33954;SDS011;20233;50.804;7.126;2023-05-10T04:20:08;15.70;;;9.43;;
33954;SDS011;20233;50.804;7.126;2023-05-10T04:22:34;15.80;;;8.98;;
33954;SDS011;20233;50.804;7.126;2023-05-10T04:25:01;17.75;;;9.40;;
33954;SDS011;20233;50.804;7.126;2023-05-10T04:27:26;20.48;;;9.32;;
33954;SDS011;20233;50.804;7.126;2023-05-10T04:29:52;18.20;;;9.25;;
33954;SDS011;20233;50.804;7.126;2023-05-10T04:32:17;22.23;;;9.88;;
33954;SDS011;20233;50.804;7.126;2023-05-10T04:34:43;27.80;;;11.85;;
33954;SDS011;20233;50.804;7.126;2023-05-10T04:37:09;24.27;;;11.15;;
33954;SDS011;20233;50.804;7.126;2023-05-10T04:39:34;19.35;;;10.55;;
33954;SDS011;20233;50.804;7.126;2023-05-10T04:42:00;22.92;;;11.75;;
33954;SDS011;20233;50.804;7.126;2023-05-10T04:44:28;23.85;;;11.90;;
33954;SDS011;20233;50.804;7.126;2023-05-10T04:46:54;22.52;;;11.98;;
33954;SDS011;20233;50.804;7.126;2023-05-10T04:49:20;26.27;;;11.93;;
33954;SDS011;20233;50.804;7.126;2023-05-10T04:51:45;18.17;;;10.02;;
33954;SDS011;20233;50.804;7.126;2023-05-10T04:54:11;20.77;;;11.60;;
33954;SDS011;20233;50.804;7.126;2023-05-10T04:56:36;24.92;;;11.07;;
33954;SDS011;20233;50.804;7.126;2023-05-10T04:59:03;20.38;;;11.23;;
33954;SDS011;20233;50.804;7.126;2023-05-10T05:01:29;23.83;;;11.98;;
33954;SDS011;20233;50.804;7.126;2023-05-10T05:03:54;26.98;;;12.93;;
33954;SDS011;20233;50.804;7.126;2023-05-10T05:06:20;24.60;;;13.32;;
33954;SDS011;20233;50.804;7.126;2023-05-10T05:08:46;22.45;;;13.57;;
33954;SDS011;20233;50.804;7.126;2023-05-10T05:11:11;28.52;;;15.55;;
33954;SDS011;20233;50.804;7.126;2023-05-10T05:13:37;26.08;;;14.18;;
33954;SDS011;20233;50.804;7.126;2023-05-10T05:16:05;29.90;;;15.48;;
33954;SDS011;20233;50.804;7.126;2023-05-10T05:18:31;24.63;;;14.25;;
33954;SDS011;20233;50.804;7.126;2023-05-10T05:20:56;30.20;;;16.17;;
33954;SDS011;20233;50.804;7.126;2023-05-10T05:23:22;28.80;;;16.73;;
33954;SDS011;20233;50.804;7.126;2023-05-10T05:25:50;26.33;;;15.80;;
33954;SDS011;20233;50.804;7.126;2023-05-10T05:28:17;28.45;;;16.35;;
33954;SDS011;20233;50.804;7.126;2023-05-10T05:30:43;24.38;;;14.48;;
33954;SDS011;20233;50.804;7.126;2023-05-10T05:33:08;23.60;;;16.13;;
33954;SDS011;20233;50.804;7.126;2023-05-10T05:35:34;25.63;;;15.27;;
33954;SDS011;20233;50.804;7.126;2023-05-10T05:37:59;27.27;;;16.40;;
33954;SDS011;20233;50.804;7.126;2023-05-10T05:40:25;25.77;;;16.40;;
33954;SDS011;20233;50.804;7.126;2023-05-10T05:42:50;32.38;;;16.25;;
33954;SDS011;20233;50.804;7.126;2023-05-10T05:45:16;31.10;;;17.38;;
33954;SDS011;20233;50.804;7.126;2023-05-10T05:47:41;34.20;;;16.92;;
33954;SDS011;20233;50.804;7.126;2023-05-10T05:50:08;49.67;;;20.42;;
33954;SDS011;20233;50.804;7.126;2023-05-10T05:52:34;32.88;;;17.85;;
33954;SDS011;20233;50.804;7.126;2023-05-10T05:55:00;27.67;;;17.52;;
33954;SDS011;20233;50.804;7.126;2023-05-10T05:57:27;36.78;;;18.75;;
33954;SDS011;20233;50.804;7.126;2023-05-10T05:59:52;36.22;;;16.75;;
33954;SDS011;20233;50.804;7.126;2023-05-10T06:02:18;33.65;;;17.27;;
33954;SDS011;20233;50.804;7.126;2023-05-10T06:04:43;34.03;;;17.48;;
33954;SDS011;20233;50.804;7.126;2023-05-10T06:07:10;33.17;;;17.67;;
33954;SDS011;20233;50.804;7.126;2023-05-10T06:09:36;32.25;;;17.05;;
33954;SDS011;20233;50.804;7.126;2023-05-10T06:12:02;28.45;;;17.13;;
33954;SDS011;20233;50.804;7.126;2023-05-10T06:14:27;27.92;;;16.75;;
33954;SDS011;20233;50.804;7.126;2023-05-10T06:16:53;28.73;;;16.58;;
33954;SDS011;20233;50.804;7.126;2023-05-10T06:19:18;30.08;;;16.65;;
33954;SDS011;20233;50.804;7.126;2023-05-10T06:21:44;30.98;;;17.00;;
33954;SDS011;20233;50.804;7.126;2023-05-10T06:24:11;24.55;;;15.60;;
33954;SDS011;20233;50.804;7.126;2023-05-10T06:26:37;31.40;;;17.17;;
33954;SDS011;20233;50.804;7.126;2023-05-10T06:29:03;33.42;;;18.02;;
33954;SDS011;20233;50.804;7.126;2023-05-10T06:31:28;31.15;;;16.75;;
33954;SDS011;20233;50.804;7.126;2023-05-10T06:33:54;30.02;;;16.08;;
33954;SDS011;20233;50.804;7.126;2023-05-10T06:36:19;24.67;;;16.55;;
33954;SDS011;20233;50.804;7.126;2023-05-10T06:38:45;26.65;;;16.58;;
33954;SDS011;20233;50.804;7.126;2023-05-10T06:41:12;26.60;;;17.10;;
33954;SDS011;20233;50.804;7.126;2023-05-10T06:43:38;23.90;;;16.15;;
33954;SDS011;20233;50.804;7.126;2023-05-10T06:46:06;26.27;;;16.13;;
33954;SDS011;20233;50.804;7.126;2023-05-10T06:48:32;26.02;;;14.55;;
33954;SDS011;20233;50.804;7.126;2023-05-10T06:50:57;26.48;;;15.80;;
33954;SDS011;20233;50.804;7.126;2023-05-10T06:53:23;24.23;;;15.60;;
33954;SDS011;20233;50.804;7.126;2023-05-10T06:55:49;22.20;;;14.07;;
33954;SDS011;20233;50.804;7.126;2023-05-10T06:58:14;21.75;;;14.07;;
33954;SDS011;20233;50.804;7.126;2023-05-10T07:00:40;19.92;;;13.20;;
33954;SDS011;20233;50.804;7.126;2023-05-10T07:03:08;18.92;;;11.63;;
33954;SDS011;20233;50.804;7.126;2023-05-10T07:05:37;19.30;;;11.45;;
33954;SDS011;20233;50.804;7.126;2023-05-10T07:08:03;17.90;;;11.60;;
33954;SDS011;20233;50.804;7.126;2023-05-10T07:10:28;19.27;;;10.13;;
33954;SDS011;20233;50.804;7.126;2023-05-10T07:12:54;15.32;;;8.90;;
33954;SDS011;20233;50.804;7.126;2023-05-10T07:15:20;13.48;;;8.07;;
33954;SDS011;20233;50.804;7.126;2023-05-10T07:17:45;12.80;;;7.28;;
33954;SDS011;20233;50.804;7.126;2023-05-10T07:20:11;9.73;;;6.50;;
33954;SDS011;20233;50.804;7.126;2023-05-10T07:22:37;10.38;;;6.00;;
33954;SDS011;20233;50.804;7.126;2023-05-10T07:25:03;10.77;;;5.78;;
33954;SDS011;20233;50.804;7.126;2023-05-10T07:27:28;10.40;;;5.82;;
33954;SDS011;20233;50.804;7.126;2023-05-10T07:29:54;8.65;;;5.45;;
33954;SDS011;20233;50.804;7.126;2023-05-10T07:32:21;6.93;;;4.93;;
33954;SDS011;20233;50.804;7.126;2023-05-10T07:34:47;7.85;;;4.75;;
33954;SDS011;20233;50.804;7.126;2023-05-10T07:37:12;9.80;;;4.75;;
33954;SDS011;20233;50.804;7.126;2023-05-10T07:39:38;8.50;;;4.47;;
33954;SDS011;20233;50.804;7.126;2023-05-10T07:42:03;9.23;;;4.38;;
33954;SDS011;20233;50.804;7.126;2023-05-10T07:44:30;10.18;;;4.72;;
33954;SDS011;20233;50.804;7.126;2023-05-10T07:46:59;10.30;;;4.60;;
33954;SDS011;20233;50.804;7.126;2023-05-10T07:49:31;8.40;;;4.25;;
33954;SDS011;20233;50.804;7.126;2023-05-10T07:51:56;10.25;;;4.90;;
33954;SDS011;20233;50.804;7.126;2023-05-10T07:54:22;11.35;;;4.63;;
33954;SDS011;20233;50.804;7.126;2023-05-10T07:56:48;10.68;;;5.15;;
33954;SDS011;20233;50.804;7.126;2023-05-10T07:59:16;7.10;;;4.28;;
33954;SDS011;20233;50.804;7.126;2023-05-10T08:01:42;9.35;;;4.90;;
33954;SDS011;20233;50.804;7.126;2023-05-10T08:04:08;11.30;;;5.07;;
33954;SDS011;20233;50.804;7.126;2023-05-10T08:06:34;10.77;;;5.35;;
33954;SDS011;20233;50.804;7.126;2023-05-10T08:09:00;12.52;;;5.43;;
33954;SDS011;20233;50.804;7.126;2023-05-10T08:11:25;9.88;;;5.15;;
33954;SDS011;20233;50.804;7.126;2023-05-10T08:13:52;9.75;;;4.97;;
33954;SDS011;20233;50.804;7.126;2023-05-10T08:16:18;7.07;;;4.25;;
33954;SDS011;20233;50.804;7.126;2023-05-10T08:18:46;10.93;;;4.55;;
33954;SDS011;20233;50.804;7.126;2023-05-10T08:21:12;9.10;;;4.70;;
33954;SDS011;20233;50.804;7.126;2023-05-10T08:23:38;10.85;;;5.15;;
33954;SDS011;20233;50.804;7.126;2023-05-10T08:26:04;10.20;;;5.32;;
33954;SDS011;20233;50.804;7.126;2023-05-10T08:28:30;7.82;;;4.72;;
33954;SDS011;20233;50.804;7.126;2023-05-10T08:30:55;9.00;;;4.57;;
33954;SDS011;20233;50.804;7.126;2023-05-10T08:33:22;7.38;;;4.10;;
33954;SDS011;20233;50.804;7.126;2023-05-10T08:35:48;7.32;;;3.92;;
33954;SDS011;20233;50.804;7.126;2023-05-10T08:38:14;6.88;;;4.13;;
33954;SDS011;20233;50.804;7.126;2023-05-10T08:40:43;7.80;;;4.22;;
33954;SDS011;20233;50.804;7.126;2023-05-10T08:43:10;7.25;;;3.63;;
33954;SDS011;20233;50.804;7.126;2023-05-10T08:45:38;12.10;;;3.45;;
33954;SDS011;20233;50.804;7.126;2023-05-10T08:48:08;8.23;;;4.32;;
33954;SDS011;20233;50.804;7.126;2023-05-10T08:50:35;8.65;;;4.57;;
33954;SDS011;20233;50.804;7.126;2023-05-10T08:53:04;7.88;;;4.60;;
33954;SDS011;20233;50.804;7.126;2023-05-10T08:55:37;8.80;;;4.30;;
33954;SDS011;20233;50.804;7.126;2023-05-10T08:58:05;5.03;;;3.00;;
33954;SDS011;20233;50.804;7.126;2023-05-10T09:00:31;5.65;;;2.65;;
33954;SDS011;20233;50.804;7.126;2023-05-10T09:02:57;4.85;;;2.40;;
33954;SDS011;20233;50.804;7.126;2023-05-10T09:05:25;6.38;;;1.83;;
33954;SDS011;20233;50.804;7.126;2023-05-10T09:07:51;5.03;;;2.15;;
33954;SDS011;20233;50.804;7.126;2023-05-10T09:10:17;4.50;;;1.70;;
33954;SDS011;20233;50.804;7.126;2023-05-10T09:12:44;3.55;;;1.42;;
33954;SDS011;20233;50.804;7.126;2023-05-10T09:15:11;3.15;;;0.40;;
33954;SDS011;20233;50.804;7.126;2023-05-10T09:17:39;2.13;;;0.70;;
33954;SDS011;20233;50.804;7.126;2023-05-10T09:20:06;0.77;;;0.30;;
33954;SDS011;20233;50.804;7.126;2023-05-10T09:22:31;1.77;;;0.60;;
33954;SDS011;20233;50.804;7.126;2023-05-10T09:25:16;0.80;;;0.30;;
33954;SDS011;20233;50.804;7.126;2023-05-10T09:27:44;2.35;;;0.40;;
33954;SDS011;20233;50.804;7.126;2023-05-10T09:30:14;4.32;;;0.30;;
33954;SDS011;20233;50.804;7.126;2023-05-10T09:35:13;0.50;;;0.20;;
33954;SDS011;20233;50.804;7.126;2023-05-10T09:37:40;1.13;;;0.20;;
33954;SDS011;20233;50.804;7.126;2023-05-10T09:40:07;3.03;;;0.40;;
33954;SDS011;20233;50.804;7.126;2023-05-10T09:42:36;1.65;;;0.60;;
33954;SDS011;20233;50.804;7.126;2023-05-10T09:45:03;1.50;;;0.30;;
33954;SDS011;20233;50.804;7.126;2023-05-10T09:47:33;1.30;;;0.52;;
33954;SDS011;20233;50.804;7.126;2023-05-10T09:50:00;1.35;;;0.38;;
33954;SDS011;20233;50.804;7.126;2023-05-10T09:52:30;0.82;;;0.30;;
33954;SDS011;20233;50.804;7.126;2023-05-10T09:55:10;1.73;;;0.43;;
33954;SDS011;20233;50.804;7.126;2023-05-10T09:57:35;1.40;;;0.50;;
33954;SDS011;20233;50.804;7.126;2023-05-10T10:00:01;1.08;;;0.43;;
33954;SDS011;20233;50.804;7.126;2023-05-10T10:02:31;3.00;;;0.65;;
33954;SDS011;20233;50.804;7.126;2023-05-10T10:04:57;5.05;;;1.20;;
33954;SDS011;20233;50.804;7.126;2023-05-10T10:07:23;3.33;;;1.40;;
33954;SDS011;20233;50.804;7.126;2023-05-10T10:09:51;2.60;;;1.77;;
33954;SDS011;20233;50.804;7.126;2023-05-10T10:12:18;4.00;;;2.15;;
33954;SDS011;20233;50.804;7.126;2023-05-10T10:14:45;11.90;;;5.93;;
33954;SDS011;20233;50.804;7.126;2023-05-10T10:17:12;8.90;;;5.13;;
33954;SDS011;20233;50.804;7.126;2023-05-10T10:19:38;9.90;;;5.45;;
33954;SDS011;20233;50.804;7.126;2023-05-10T10:22:04;11.77;;;6.07;;
33954;SDS011;20233;50.804;7.126;2023-05-10T10:24:30;8.77;;;5.75;;
33954;SDS011;20233;50.804;7.126;2023-05-10T10:27:04;14.02;;;7.05;;
33954;SDS011;20233;50.804;7.126;2023-05-10T10:29:47;12.20;;;6.75;;
33954;SDS011;20233;50.804;7.126;2023-05-10T10:32:33;13.68;;;7.10;;
33954;SDS011;20233;50.804;7.126;2023-05-10T10:35:13;14.15;;;7.68;;
33954;SDS011;20233;50.804;7.126;2023-05-10T10:37:46;11.25;;;6.47;;
33954;SDS011;20233;50.804;7.126;2023-05-10T10:42:54;13.02;;;6.60;;
33954;SDS011;20233;50.804;7.126;2023-05-10T10:45:21;10.35;;;5.55;;
33954;SDS011;20233;50.804;7.126;2023-05-10T10:47:47;11.02;;;6.85;;
33954;SDS011;20233;50.804;7.126;2023-05-10T10:50:14;11.90;;;6.95;;
33954;SDS011;20233;50.804;7.126;2023-05-10T10:52:42;14.70;;;6.80;;
33954;SDS011;20233;50.804;7.126;2023-05-10T10:55:27;13.95;;;7.30;;
33954;SDS011;20233;50.804;7.126;2023-05-10T10:57:57;11.75;;;6.70;;
33954;SDS011;20233;50.804;7.126;2023-05-10T11:00:35;11.95;;;7.80;;
33954;SDS011;20233;50.804;7.126;2023-05-10T11:03:03;12.48;;;5.63;;
33954;SDS011;20233;50.804;7.126;2023-05-10T11:05:48;8.63;;;4.35;;
33954;SDS011;20233;50.804;7.126;2023-05-10T11:09:04;8.43;;;5.35;;
33954;SDS011;20233;50.804;7.126;2023-05-10T11:11:13;5.13;;;3.25;;
33954;SDS011;20233;50.804;7.126;2023-05-10T11:13:43;4.68;;;1.55;;
33954;SDS011;20233;50.804;7.126;2023-05-10T11:16:11;6.18;;;1.90;;
33954;SDS011;20233;50.804;7.126;2023-05-10T11:21:30;3.10;;;1.73;;
33954;SDS011;20233;50.804;7.126;2023-05-10T11:23:58;3.38;;;2.15;;
33954;SDS011;20233;50.804;7.126;2023-05-10T11:26:25;3.60;;;1.88;;
33954;SDS011;20233;50.804;7.126;2023-05-10T11:28:55;3.20;;;1.92;;
33954;SDS011;20233;50.804;7.126;2023-05-10T11:31:21;4.07;;;1.48;;
33954;SDS011;20233;50.804;7.126;2023-05-10T11:33:51;2.60;;;1.50;;
33954;SDS011;20233;50.804;7.126;2023-05-10T11:36:18;2.88;;;0.95;;
33954;SDS011;20233;50.804;7.126;2023-05-10T11:38:50;4.00;;;1.30;;
33954;SDS011;20233;50.804;7.126;2023-05-10T11:41:18;2.35;;;0.95;;
33954;SDS011;20233;50.804;7.126;2023-05-10T11:43:46;5.18;;;2.00;;
33954;SDS011;20233;50.804;7.126;2023-05-10T11:46:14;2.28;;;0.80;;
33954;SDS011;20233;50.804;7.126;2023-05-10T11:48:40;4.85;;;0.80;;
33954;SDS011;20233;50.804;7.126;2023-05-10T11:51:06;1.65;;;0.55;;
33954;SDS011;20233;50.804;7.126;2023-05-10T11:53:32;3.42;;;0.55;;
33954;SDS011;20233;50.804;7.126;2023-05-10T11:56:08;2.83;;;0.47;;
33954;SDS011;20233;50.804;7.126;2023-05-10T11:58:35;1.40;;;0.40;;
33954;SDS011;20233;50.804;7.126;2023-05-10T12:01:07;1.67;;;0.95;;
33954;SDS011;20233;50.804;7.126;2023-05-10T12:03:33;3.20;;;0.93;;
33954;SDS011;20233;50.804;7.126;2023-05-10T12:05:59;3.28;;;0.75;;
33954;SDS011;20233;50.804;7.126;2023-05-10T12:08:27;1.42;;;0.68;;
33954;SDS011;20233;50.804;7.126;2023-05-10T12:11:03;2.58;;;1.00;;
33954;SDS011;20233;50.804;7.126;2023-05-10T12:13:32;2.05;;;0.80;;
33954;SDS011;20233;50.804;7.126;2023-05-10T12:16:13;2.53;;;0.93;;
33954;SDS011;20233;50.804;7.126;2023-05-10T12:18:43;1.23;;;0.43;;
33954;SDS011;20233;50.804;7.126;2023-05-10T12:21:10;1.85;;;0.47;;
33954;SDS011;20233;50.804;7.126;2023-05-10T12:23:37;3.15;;;0.40;;
33954;SDS011;20233;50.804;7.126;2023-05-10T12:26:05;1.20;;;0.50;;
33954;SDS011;20233;50.804;7.126;2023-05-10T12:28:31;3.22;;;1.00;;
33954;SDS011;20233;50.804;7.126;2023-05-10T12:30:57;3.50;;;1.73;;
33954;SDS011;20233;50.804;7.126;2023-05-10T12:33:24;2.80;;;1.58;;
33954;SDS011;20233;50.804;7.126;2023-05-10T12:35:50;3.90;;;1.63;;
33954;SDS011;20233;50.804;7.126;2023-05-10T12:38:31;2.67;;;1.52;;
33954;SDS011;20233;50.804;7.126;2023-05-10T12:41:03;3.15;;;0.82;;
33954;SDS011;20233;50.804;7.126;2023-05-10T12:43:33;6.75;;;2.20;;
33954;SDS011;20233;50.804;7.126;2023-05-10T12:48:34;5.00;;;0.88;;
33954;SDS011;20233;50.804;7.126;2023-05-10T12:51:01;2.67;;;0.75;;
33954;SDS011;20233;50.804;7.126;2023-05-10T12:53:27;2.28;;;0.50;;
33954;SDS011;20233;50.804;7.126;2023-05-10T12:55:52;2.40;;;0.70;;
33954;SDS011;20233;50.804;7.126;2023-05-10T12:58:18;5.13;;;1.15;;
33954;SDS011;20233;50.804;7.126;2023-05-10T13:00:45;2.78;;;1.05;;
33954;SDS011;20233;50.804;7.126;2023-05-10T13:03:11;3.95;;;0.80;;
33954;SDS011;20233;50.804;7.126;2023-05-10T13:05:37;3.22;;;0.60;;
33954;SDS011;20233;50.804;7.126;2023-05-10T13:08:03;1.73;;;0.77;;
33954;SDS011;20233;50.804;7.126;2023-05-10T13:10:29;1.77;;;0.90;;
33954;SDS011;20233;50.804;7.126;2023-05-10T13:12:56;2.15;;;1.10;;
33954;SDS011;20233;50.804;7.126;2023-05-10T13:15:22;2.50;;;0.60;;
33954;SDS011;20233;50.804;7.126;2023-05-10T13:17:48;1.92;;;0.70;;
33954;SDS011;20233;50.804;7.126;2023-05-10T13:20:14;3.80;;;0.77;;
33954;SDS011;20233;50.804;7.126;2023-05-10T13:22:39;3.47;;;0.93;;
33954;SDS011;20233;50.804;7.126;2023-05-10T13:25:05;2.67;;;1.00;;
33954;SDS011;20233;50.804;7.126;2023-05-10T13:27:31;5.32;;;1.00;;
33954;SDS011;20233;50.804;7.126;2023-05-10T13:29:57;3.08;;;0.73;;
33954;SDS011;20233;50.804;7.126;2023-05-10T13:32:24;2.55;;;0.60;;
33954;SDS011;20233;50.804;7.126;2023-05-10T13:34:50;1.50;;;0.73;;
33954;SDS011;20233;50.804;7.126;2023-05-10T13:37:16;1.25;;;0.38;;
33954;SDS011;20233;50.804;7.126;2023-05-10T13:39:41;2.55;;;0.45;;
33954;SDS011;20233;50.804;7.126;2023-05-10T13:42:07;2.78;;;0.52;;
33954;SDS011;20233;50.804;7.126;2023-05-10T13:44:32;1.33;;;0.38;;
33954;SDS011;20233;50.804;7.126;2023-05-10T13:46:58;3.67;;;0.55;;
33954;SDS011;20233;50.804;7.126;2023-05-10T13:49:24;2.47;;;0.50;;
33954;SDS011;20233;50.804;7.126;2023-05-10T13:51:50;2.30;;;0.40;;
33954;SDS011;20233;50.804;7.126;2023-05-10T13:54:16;2.67;;;0.40;;
33954;SDS011;20233;50.804;7.126;2023-05-10T13:56:44;3.17;;;0.70;;
33954;SDS011;20233;50.804;7.126;2023-05-10T13:59:12;2.20;;;0.40;;
33954;SDS011;20233;50.804;7.126;2023-05-10T14:01:37;1.65;;;0.40;;
33954;SDS011;20233;50.804;7.126;2023-05-10T14:04:03;3.13;;;0.30;;
33954;SDS011;20233;50.804;7.126;2023-05-10T14:06:28;2.40;;;0.52;;
33954;SDS011;20233;50.804;7.126;2023-05-10T14:08:54;3.30;;;0.30;;
33954;SDS011;20233;50.804;7.126;2023-05-10T14:11:20;3.38;;;0.35;;
33954;SDS011;20233;50.804;7.126;2023-05-10T14:13:45;1.80;;;0.30;;
33954;SDS011;20233;50.804;7.126;2023-05-10T14:16:11;2.42;;;0.35;;
33954;SDS011;20233;50.804;7.126;2023-05-10T14:18:37;2.88;;;0.50;;
33954;SDS011;20233;50.804;7.126;2023-05-10T14:21:02;2.28;;;0.40;;
33954;SDS011;20233;50.804;7.126;2023-05-10T14:23:28;1.63;;;0.30;;
33954;SDS011;20233;50.804;7.126;2023-05-10T14:25:55;2.10;;;0.20;;
33954;SDS011;20233;50.804;7.126;2023-05-10T14:28:20;1.73;;;0.30;;
33954;SDS011;20233;50.804;7.126;2023-05-10T14:30:47;1.90;;;0.30;;
33954;SDS011;20233;50.804;7.126;2023-05-10T14:33:13;1.45;;;0.25;;
33954;SDS011;20233;50.804;7.126;2023-05-10T14:35:38;1.25;;;0.40;;
33954;SDS011;20233;50.804;7.126;2023-05-10T14:38:04;2.08;;;0.35;;
33954;SDS011;20233;50.804;7.126;2023-05-10T14:40:30;2.58;;;0.30;;
33954;SDS011;20233;50.804;7.126;2023-05-10T14:42:55;1.00;;;0.32;;
33954;SDS011;20233;50.804;7.126;2023-05-10T14:45:21;3.67;;;0.75;;
33954;SDS011;20233;50.804;7.126;2023-05-10T14:47:47;2.58;;;0.50;;
33954;SDS011;20233;50.804;7.126;2023-05-10T14:50:14;1.85;;;0.40;;
33954;SDS011;20233;50.804;7.126;2023-05-10T14:52:41;1.08;;;0.38;;
33954;SDS011;20233;50.804;7.126;2023-05-10T14:55:06;1.73;;;0.35;;
33954;SDS011;20233;50.804;7.126;2023-05-10T14:57:32;1.15;;;0.45;;
33954;SDS011;20233;50.804;7.126;2023-05-10T14:59:58;4.35;;;0.40;;
33954;SDS011;20233;50.804;7.126;2023-05-10T15:02:24;1.58;;;0.30;;
33954;SDS011;20233;50.804;7.126;2023-05-10T15:04:49;1.70;;;0.30;;
33954;SDS011;20233;50.804;7.126;2023-05-10T15:07:15;1.63;;;0.30;;
33954;SDS011;20233;50.804;7.126;2023-05-10T15:09:43;2.33;;;0.68;;
33954;SDS011;20233;50.804;7.126;2023-05-10T15:12:09;2.35;;;0.93;;